| Date | Time | Temp. (oF) | Dew Point (oF) | Rel. Hum. (%) | Press. (in.) | Wind Dir. | Wind Speed (mph) | Hourly Rainfall (in.) |
|
|---|---|---|---|---|---|---|---|---|---|
| 1 | 07/16 | 00:00 | 77 | 64 | 66 | 29.92 | SSW | 2 | 0.00 |
| 2 | 07/15 | 23:00 | 79 | 64 | 61 | 29.91 | WSW | 5 | 0.00 |
| 3 | 07/15 | 22:00 | 80 | 64 | 60 | 29.91 | SW | 2 | 0.00 |
| 4 | 07/15 | 21:00 | 83 | 62 | 51 | 29.89 | SSW | 2 | 0.00 |
| 5 | 07/15 | 20:00 | 87 | 63 | 46 | 29.89 | WSW | 2 | 0.00 |
| 6 | 07/15 | 19:00 | 89 | 61 | 41 | 29.89 | W | 3 | 0.00 |
| 7 | 07/15 | 18:00 | 91 | 60 | 37 | 29.89 | SW | 3 | 0.00 |
| 8 | 07/15 | 17:00 | 91 | 64 | 42 | 29.90 | S | 3 | 0.00 |
| 9 | 07/15 | 16:00 | 91 | 63 | 41 | 29.91 | SSW | 3 | 0.00 |
| 10 | 07/15 | 15:00 | 91 | 68 | 48 | 29.92 | WNW | 5 | 0.00 |
| 11 | 07/15 | 14:00 | 87 | 69 | 56 | 29.92 | SW | 5 | 0.00 |
| 12 | 07/15 | 13:00 | 86 | 69 | 59 | 29.95 | SW | 2 | 0.00 |
| 13 | 07/15 | 12:00 | 82 | 67 | 62 | 29.97 | SSE | 4 | 0.00 |
| 14 | 07/15 | 11:00 | 79 | 69 | 73 | 30.00 | SSW | 7 | 0.00 |
| 15 | 07/15 | 10:00 | 74 | 73 | 100 | 30.01 | WNW | 3 | 0.00 |
| 16 | 07/15 | 09:00 | 68 | 68 | 100 | 30.02 | SSE | 2 | 0.00 |
| 17 | 07/15 | 08:00 | 66 | 66 | 100 | 30.02 | SW | 3 | 0.00 |
| 18 | 07/15 | 07:00 | 64 | 63 | 100 | 30.01 | SSW | 2 | 0.00 |
| 19 | 07/15 | 06:00 | 63 | 63 | 100 | 30.00 | NW | 0 | 0.00 |
| 20 | 07/15 | 05:00 | 63 | 62 | 99 | 29.99 | S | 0 | 0.00 |
| 21 | 07/15 | 04:00 | 64 | 63 | 99 | 29.99 | WNW | 0 | 0.00 |
| 22 | 07/15 | 03:00 | 65 | 64 | 98 | 29.99 | SW | 0 | 0.00 |
| 23 | 07/15 | 02:00 | 66 | 65 | 97 | 30.00 | SW | 0 | 0.00 |
| 24 | 07/15 | 01:00 | 67 | 65 | 96 | 30.02 | SW | 0 | 0.00 |